Time;durP1;ratioP1;P1;durP2;ratioP2;P2;SDS_P1;SDS_P2;PMS_P1;PMS_P2;Temp;Humidity;BMP_temperature;BMP_pressure;BME280_temperature;BME280_humidity;BME280_pressure;Samples;Min_cycle;Max_cycle;Signal;HPM_P1;HPM_P2
2024/03/04 00:00:50;;;;;;;26.77;16.43;;;7.40;99.90;;;;;;2074881;28;20277;-71
2024/03/04 00:01:51;;;;;;;27.10;17.07;;;7.50;99.90;;;;;;2076111;28;20189;-70
2024/03/04 00:02:52;;;;;;;25.87;16.60;;;7.50;99.90;;;;;;2073672;28;20282;-71
2024/03/04 00:03:52;;;;;;;24.80;15.30;;;7.50;99.90;;;;;;2073892;28;20253;-71
2024/03/04 00:04:53;;;;;;;23.07;15.17;;;7.40;99.90;;;;;;2064498;28;20193;-70
2024/03/04 00:05:54;;;;;;;23.83;14.77;;;7.50;99.90;;;;;;2078078;28;20270;-71
2024/03/04 00:06:55;;;;;;;26.50;16.20;;;7.50;99.90;;;;;;2074483;28;20189;-71
2024/03/04 00:07:58;;;;;;;24.37;16.50;;;7.50;99.90;;;;;;2066064;28;20707;-71
2024/03/04 00:08:59;;;;;;;27.30;16.42;;;7.50;99.90;;;;;;2065751;28;20204;-72
2024/03/04 00:10:00;;;;;;;23.23;14.83;;;7.40;99.90;;;;;;2065151;28;20185;-71
2024/03/04 00:11:00;;;;;;;29.23;16.45;;;7.30;99.90;;;;;;2074599;28;20675;-71
2024/03/04 00:12:01;;;;;;;25.43;15.93;;;7.30;99.90;;;;;;2074565;28;20242;-71
2024/03/04 00:13:02;;;;;;;26.97;17.10;;;7.30;99.90;;;;;;2064234;28;20232;-71
2024/03/04 00:14:03;;;;;;;24.53;15.50;;;7.20;99.90;;;;;;2078821;28;20219;-71
2024/03/04 00:15:05;;;;;;;27.00;16.70;;;7.20;99.90;;;;;;2071110;28;20210;-71
2024/03/04 00:16:06;;;;;;;23.45;15.30;;;7.20;99.90;;;;;;2074668;28;20741;-71
2024/03/04 00:17:07;;;;;;;25.20;14.43;;;7.30;99.90;;;;;;2074795;28;20634;-72
2024/03/04 00:18:07;;;;;;;27.33;16.20;;;7.30;99.90;;;;;;2074522;28;20295;-71
2024/03/04 00:19:08;;;;;;;26.40;15.00;;;7.40;99.90;;;;;;2065465;28;20303;-71
2024/03/04 00:20:10;;;;;;;26.47;16.60;;;7.40;99.90;;;;;;2073076;28;20384;-71
2024/03/04 00:21:11;;;;;;;26.45;16.80;;;7.40;99.90;;;;;;2074509;28;20235;-71
2024/03/04 00:22:12;;;;;;;27.60;16.07;;;7.40;99.90;;;;;;2073316;28;20220;-71
2024/03/04 00:23:12;;;;;;;21.10;13.63;;;7.30;99.90;;;;;;2055927;28;20319;-71
2024/03/04 00:24:13;;;;;;;24.30;15.40;;;7.30;99.90;;;;;;2059451;28;20287;-71
2024/03/04 00:25:16;;;;;;;26.60;16.20;;;7.30;99.90;;;;;;2066708;28;20232;-71
2024/03/04 00:26:17;;;;;;;21.52;14.05;;;7.30;99.90;;;;;;2065827;28;20793;-71
2024/03/04 00:27:17;;;;;;;27.37;17.03;;;7.20;99.90;;;;;;2071904;28;20264;-71
2024/03/04 00:28:18;;;;;;;23.70;15.90;;;7.30;99.90;;;;;;2068645;28;20852;-71
2024/03/04 00:29:19;;;;;;;26.33;16.27;;;7.30;99.90;;;;;;2071084;28;20231;-72
2024/03/04 00:30:19;;;;;;;26.27;15.73;;;7.20;99.90;;;;;;2071731;28;20233;-71
2024/03/04 00:31:20;;;;;;;25.50;15.47;;;7.10;99.90;;;;;;2072566;28;20232;-71
2024/03/04 00:32:21;;;;;;;24.20;15.23;;;7.10;99.90;;;;;;2074946;28;20259;-71
2024/03/04 00:33:21;;;;;;;22.90;14.80;;;7.00;99.90;;;;;;2074261;28;20713;-71
2024/03/04 00:34:22;;;;;;;23.13;13.73;;;7.00;99.90;;;;;;2073120;28;20230;-71
2024/03/04 00:35:23;;;;;;;24.73;15.57;;;7.10;99.90;;;;;;2073123;28;20229;-71
2024/03/04 00:36:26;;;;;;;22.83;15.20;;;7.10;99.90;;;;;;2073514;28;20227;-71
2024/03/04 00:37:27;;;;;;;23.40;14.57;;;7.10;99.90;;;;;;2073343;28;20643;-71
2024/03/04 00:38:27;;;;;;;21.83;14.00;;;7.10;99.90;;;;;;2073115;28;20229;-71
2024/03/04 00:39:28;;;;;;;21.90;14.43;;;7.00;99.90;;;;;;2073460;28;20718;-69
2024/03/04 00:40:30;;;;;;;23.20;14.07;;;7.00;99.90;;;;;;2074343;28;20281;-71
2024/03/04 00:41:31;;;;;;;21.80;13.90;;;7.00;99.90;;;;;;2074937;28;20236;-70
2024/03/04 00:42:37;;;;;;;19.83;13.63;;;7.00;99.90;;;;;;2074036;28;20715;-70
2024/03/04 00:43:37;;;;;;;20.67;12.63;;;7.00;99.90;;;;;;2071779;28;20225;-70
2024/03/04 00:44:38;;;;;;;23.23;13.43;;;7.00;99.90;;;;;;2065331;28;20226;-70
2024/03/04 00:45:39;;;;;;;20.63;11.67;;;7.00;99.90;;;;;;2073406;28;20230;-70
2024/03/04 00:46:41;;;;;;;20.43;13.60;;;7.00;99.90;;;;;;2074360;28;20316;-70
2024/03/04 00:47:43;;;;;;;20.90;12.85;;;7.10;99.90;;;;;;2057122;28;20233;-70
2024/03/04 00:48:44;;;;;;;21.50;13.82;;;7.10;99.90;;;;;;2055292;28;20803;-70
2024/03/04 00:49:45;;;;;;;22.80;13.85;;;7.10;99.90;;;;;;2065102;28;20241;-69
2024/03/04 00:50:46;;;;;;;20.33;12.63;;;7.10;99.90;;;;;;2073824;28;20224;-70
2024/03/04 00:51:47;;;;;;;22.50;13.43;;;7.10;99.90;;;;;;2073901;28;20455;-70
2024/03/04 00:52:48;;;;;;;23.50;14.80;;;7.10;99.90;;;;;;2073012;28;20333;-70
2024/03/04 00:53:49;;;;;;;20.45;11.80;;;7.00;99.90;;;;;;2073984;28;20188;-70
2024/03/04 00:54:50;;;;;;;18.93;12.10;;;6.90;99.90;;;;;;2065697;28;20184;-70
2024/03/04 00:55:50;;;;;;;19.70;13.52;;;6.90;99.90;;;;;;2071875;28;20185;-71
2024/03/04 00:56:51;;;;;;;17.87;11.30;;;6.90;99.90;;;;;;2073733;28;20548;-71
2024/03/04 00:57:52;;;;;;;21.13;12.63;;;6.90;99.90;;;;;;2062557;28;20186;-71
2024/03/04 00:58:53;;;;;;;21.40;12.77;;;6.90;99.90;;;;;;2056841;28;20584;-70
2024/03/04 00:59:54;;;;;;;21.02;12.02;;;6.80;99.90;;;;;;2063704;28;20215;-70
2024/03/04 01:00:54;;;;;;;19.30;12.17;;;6.80;99.90;;;;;;2053085;28;20188;-70
2024/03/04 01:01:56;;;;;;;19.60;12.60;;;6.90;99.90;;;;;;2058177;28;20183;-70
2024/03/04 01:02:56;;;;;;;17.45;11.80;;;6.90;99.90;;;;;;2067973;28;20337;-70
2024/03/04 01:03:57;;;;;;;19.87;12.37;;;6.90;99.90;;;;;;2063182;28;20182;-71
2024/03/04 01:04:57;;;;;;;17.83;11.47;;;6.90;99.90;;;;;;2073545;28;20196;-69
2024/03/04 01:05:59;;;;;;;20.17;11.67;;;6.90;99.90;;;;;;2073001;28;20185;-70
2024/03/04 01:07:00;;;;;;;20.25;12.18;;;6.90;99.90;;;;;;2073902;28;20205;-71
2024/03/04 01:08:01;;;;;;;18.63;10.87;;;6.90;99.90;;;;;;2073388;28;20189;-71
2024/03/04 01:09:01;;;;;;;16.97;10.80;;;6.90;99.90;;;;;;2064029;28;20673;-71
2024/03/04 01:10:02;;;;;;;18.70;12.53;;;7.00;99.90;;;;;;2072338;28;20204;-70
2024/03/04 01:11:03;;;;;;;19.70;11.70;;;7.00;99.90;;;;;;2074790;28;20198;-70
2024/03/04 01:12:04;;;;;;;16.90;10.83;;;7.00;99.90;;;;;;2065639;28;20188;-70
2024/03/04 01:13:04;;;;;;;21.30;12.97;;;6.90;99.90;;;;;;2069877;28;20214;-70
2024/03/04 01:14:05;;;;;;;17.97;11.33;;;7.00;99.90;;;;;;2065638;28;20229;-70
2024/03/04 01:15:07;;;;;;;18.30;11.97;;;6.90;99.90;;;;;;2073228;28;20237;-71
2024/03/04 01:16:08;;;;;;;19.98;13.45;;;6.90;99.90;;;;;;2071408;28;20242;-70
2024/03/04 01:17:16;;;;;;;17.10;10.60;;;6.90;99.90;;;;;;2066396;28;20229;-70
2024/03/04 01:18:17;;;;;;;19.05;11.52;;;6.70;99.90;;;;;;2066878;28;20356;-70
2024/03/04 01:19:19;;;;;;;18.87;11.30;;;6.70;99.90;;;;;;2064845;28;20860;-71
2024/03/04 01:20:20;;;;;;;17.48;11.50;;;6.80;99.90;;;;;;2057814;28;20225;-70
2024/03/04 01:21:21;;;;;;;17.65;11.38;;;6.80;99.90;;;;;;2071999;28;20236;-70
2024/03/04 01:22:21;;;;;;;16.53;11.20;;;6.80;99.90;;;;;;2073688;28;20231;-72
2024/03/04 01:23:23;;;;;;;21.10;12.77;;;6.80;99.90;;;;;;2073383;28;20228;-70
2024/03/04 01:24:24;;;;;;;20.95;11.80;;;6.80;99.90;;;;;;2073396;28;20229;-71
2024/03/04 01:25:25;;;;;;;22.13;10.87;;;6.80;99.90;;;;;;2073006;28;20731;-71
2024/03/04 01:26:26;;;;;;;18.57;11.57;;;6.80;99.90;;;;;;2073221;28;20319;-71
2024/03/04 01:27:26;;;;;;;17.02;10.77;;;6.70;99.90;;;;;;2073202;28;20228;-70
2024/03/04 01:28:28;;;;;;;18.30;11.47;;;6.80;99.90;;;;;;2072991;28;20228;-72
2024/03/04 01:29:29;;;;;;;17.98;11.27;;;6.80;99.90;;;;;;2073616;28;20244;-71
2024/03/04 01:30:29;;;;;;;17.23;11.57;;;6.80;99.90;;;;;;2061753;28;20226;-71
2024/03/04 01:31:30;;;;;;;17.13;10.97;;;6.90;99.90;;;;;;2057926;28;20226;-71
2024/03/04 01:32:30;;;;;;;17.37;10.93;;;6.80;99.90;;;;;;2073470;28;20224;-71
2024/03/04 01:33:31;;;;;;;17.07;10.97;;;6.80;99.90;;;;;;2076816;28;20315;-71
2024/03/04 01:34:32;;;;;;;16.77;10.97;;;6.80;99.90;;;;;;2072937;28;20239;-71
2024/03/04 01:35:34;;;;;;;17.93;10.83;;;6.80;99.90;;;;;;2073292;28;20229;-72
2024/03/04 01:36:34;;;;;;;16.45;11.23;;;6.80;99.90;;;;;;2080415;28;20232;-71
2024/03/04 01:37:35;;;;;;;17.50;11.60;;;6.90;99.90;;;;;;2073088;28;20731;-71
2024/03/04 01:38:36;;;;;;;16.90;10.70;;;6.90;99.90;;;;;;2062003;28;20230;-72
2024/03/04 01:39:37;;;;;;;16.50;11.10;;;6.80;99.90;;;;;;2074011;28;20316;-72
2024/03/04 01:40:37;;;;;;;15.73;10.33;;;6.80;99.90;;;;;;2071562;28;20239;-71
2024/03/04 01:41:38;;;;;;;14.80;9.97;;;6.80;99.90;;;;;;2063161;28;20236;-71
2024/03/04 01:42:42;;;;;;;15.50;10.50;;;6.70;99.90;;;;;;2073132;28;20260;-72
2024/03/04 01:43:43;;;;;;;16.33;9.95;;;6.80;99.90;;;;;;2067357;28;20676;-71
2024/03/04 01:44:44;;;;;;;19.37;10.83;;;6.80;99.90;;;;;;2067143;28;20301;-71
2024/03/04 01:45:44;;;;;;;14.57;9.73;;;6.80;99.90;;;;;;2075485;28;20761;-71
2024/03/04 01:46:45;;;;;;;17.97;11.40;;;6.80;99.90;;;;;;2073854;28;20233;-70
2024/03/04 01:47:46;;;;;;;16.00;10.80;;;6.80;99.90;;;;;;2070007;28;20378;-71
2024/03/04 01:48:47;;;;;;;18.77;12.80;;;6.80;99.90;;;;;;2069669;28;20214;-71
2024/03/04 01:49:51;;;;;;;18.92;11.45;;;6.70;99.90;;;;;;2068701;28;20234;-71
2024/03/04 01:50:54;;;;;;;17.15;10.93;;;6.60;99.90;;;;;;2070980;28;20179;-71
2024/03/04 01:51:55;;;;;;;15.15;10.40;;;6.60;99.90;;;;;;2066641;28;20684;-71
2024/03/04 01:52:58;;;;;;;18.08;11.27;;;6.70;99.90;;;;;;2067932;28;20188;-71
2024/03/04 01:54:00;;;;;;;17.17;10.35;;;6.70;99.90;;;;;;2063709;28;20180;-71
2024/03/04 01:55:02;;;;;;;16.63;10.88;;;6.70;99.90;;;;;;2065972;28;20536;-70
2024/03/04 01:56:05;;;;;;;16.73;10.00;;;6.80;99.90;;;;;;2071285;28;20192;-71
2024/03/04 01:57:07;;;;;;;14.50;8.88;;;6.80;99.90;;;;;;2075964;28;20238;-72
2024/03/04 01:58:11;;;;;;;15.82;10.43;;;6.90;99.90;;;;;;2056312;28;20285;-71
2024/03/04 01:59:12;;;;;;;16.63;10.93;;;7.00;99.90;;;;;;2057422;28;20295;-72
2024/03/04 02:00:15;;;;;;;14.47;10.67;;;7.00;99.90;;;;;;2067850;28;20335;-71
2024/03/04 02:01:16;;;;;;;16.83;10.73;;;7.00;99.90;;;;;;2067581;28;20529;-72
2024/03/04 02:02:18;;;;;;;15.35;9.45;;;7.00;99.90;;;;;;2078015;28;20769;-71
2024/03/04 02:03:21;;;;;;;20.52;11.95;;;7.00;99.90;;;;;;2071158;28;20688;-71
2024/03/04 02:04:22;;;;;;;16.80;10.38;;;6.90;99.90;;;;;;2064182;28;20226;-71
2024/03/04 02:05:22;;;;;;;16.30;10.65;;;6.80;99.90;;;;;;2074086;28;20227;-70
2024/03/04 02:06:24;;;;;;;19.00;10.50;;;6.60;99.90;;;;;;2074072;28;20225;-70
2024/03/04 02:07:25;;;;;;;17.48;11.85;;;6.60;99.90;;;;;;2062079;28;20228;-70
2024/03/04 02:08:26;;;;;;;19.40;11.87;;;6.60;99.90;;;;;;2066789;28;20265;-71
2024/03/04 02:09:27;;;;;;;16.23;10.23;;;6.60;99.90;;;;;;2055339;28;20242;-71
2024/03/04 02:10:28;;;;;;;17.10;9.55;;;6.50;99.90;;;;;;2056212;28;20223;-70
2024/03/04 02:11:29;;;;;;;18.90;11.07;;;6.50;99.90;;;;;;2049753;28;20266;-70
2024/03/04 02:12:30;;;;;;;17.02;10.45;;;6.50;99.90;;;;;;2061709;28;20228;-70
2024/03/04 02:13:36;;;;;;;17.73;11.63;;;6.50;99.90;;;;;;2065583;28;20233;-70
2024/03/04 02:14:38;;;;;;;17.70;11.20;;;6.50;99.90;;;;;;2065790;28;21026;-70
2024/03/04 02:15:39;;;;;;;16.83;11.00;;;6.50;99.90;;;;;;2063534;28;20233;-70
2024/03/04 02:16:40;;;;;;;19.10;11.57;;;6.40;99.90;;;;;;2065963;28;20672;-70
2024/03/04 02:17:40;;;;;;;17.13;10.20;;;6.40;99.90;;;;;;2073777;28;20228;-70
2024/03/04 02:18:41;;;;;;;17.33;10.83;;;6.30;99.90;;;;;;2080356;28;20239;-71
2024/03/04 02:19:42;;;;;;;17.33;10.97;;;6.30;99.90;;;;;;2074218;28;20263;-70
2024/03/04 02:20:45;;;;;;;19.50;10.93;;;6.30;99.90;;;;;;2072974;28;20781;-71
2024/03/04 02:21:55;;;;;;;17.50;10.70;;;6.30;99.90;;;;;;2063945;28;20295;-70
2024/03/04 02:22:56;;;;;;;17.30;10.15;;;6.30;99.90;;;;;;2065055;28;20257;-70
2024/03/04 02:23:58;;;;;;;14.10;9.13;;;6.40;99.90;;;;;;2073776;28;20197;-70
2024/03/04 02:24:58;;;;;;;18.35;11.15;;;6.40;99.90;;;;;;2075203;28;20247;-70
2024/03/04 02:25:59;;;;;;;16.47;10.60;;;6.40;99.90;;;;;;2073334;28;20178;-71
2024/03/04 02:27:00;;;;;;;17.57;10.87;;;6.50;99.90;;;;;;2074604;28;20183;-70
2024/03/04 02:28:02;;;;;;;18.20;11.47;;;6.40;99.90;;;;;;2073863;28;20185;-70
2024/03/04 02:29:02;;;;;;;14.40;9.20;;;6.40;99.90;;;;;;2064724;28;20261;-71
2024/03/04 02:30:07;;;;;;;17.63;11.00;;;6.40;99.90;;;;;;2078865;28;20189;-70
2024/03/04 02:31:10;;;;;;;15.95;9.85;;;6.40;99.90;;;;;;2072303;28;20264;-71
2024/03/04 02:32:11;;;;;;;15.25;9.90;;;6.40;99.90;;;;;;2075137;28;20707;-70
2024/03/04 02:33:12;;;;;;;17.20;9.83;;;6.40;99.90;;;;;;2073482;28;20263;-70
2024/03/04 02:34:13;;;;;;;15.80;11.20;;;6.50;99.90;;;;;;2073586;28;20231;-70
2024/03/04 02:35:14;;;;;;;15.68;10.20;;;6.50;99.90;;;;;;2073391;28;20233;-71
2024/03/04 02:36:15;;;;;;;15.23;9.33;;;6.50;99.90;;;;;;2073411;28;20745;-70
2024/03/04 02:37:16;;;;;;;15.90;9.53;;;6.50;99.90;;;;;;2070874;28;20775;-70
2024/03/04 02:38:18;;;;;;;16.65;9.88;;;6.50;99.90;;;;;;2074864;28;20229;-70
2024/03/04 02:39:19;;;;;;;18.85;9.65;;;6.60;99.90;;;;;;2064314;28;20234;-71
2024/03/04 02:40:20;;;;;;;18.23;11.43;;;6.50;99.90;;;;;;2058706;28;20641;-71
2024/03/04 02:41:21;;;;;;;17.03;10.30;;;6.50;99.90;;;;;;2057600;28;20226;-71
2024/03/04 02:42:22;;;;;;;18.35;10.80;;;6.50;99.90;;;;;;2063019;28;20305;-70
2024/03/04 02:43:24;;;;;;;18.20;9.90;;;6.50;99.90;;;;;;2073050;28;20298;-70
2024/03/04 02:44:25;;;;;;;17.13;9.88;;;6.40;99.90;;;;;;2065515;28;20798;-71
2024/03/04 02:45:26;;;;;;;14.63;9.13;;;6.50;99.90;;;;;;2072856;28;20229;-71
2024/03/04 02:46:26;;;;;;;18.47;10.30;;;6.40;99.90;;;;;;2064612;28;20236;-71
2024/03/04 02:47:27;;;;;;;14.07;9.40;;;6.40;99.90;;;;;;2052805;28;20226;-70
2024/03/04 02:48:28;;;;;;;16.93;9.97;;;6.40;99.90;;;;;;2070787;28;20229;-70
2024/03/04 02:49:30;;;;;;;17.43;10.80;;;6.40;99.90;;;;;;2074589;28;20758;-70
2024/03/04 02:50:31;;;;;;;14.23;8.95;;;6.40;99.90;;;;;;2062000;28;20229;-70
2024/03/04 02:51:31;;;;;;;17.52;10.18;;;6.30;99.90;;;;;;2069177;28;20699;-71
2024/03/04 02:52:32;;;;;;;15.77;10.77;;;6.30;99.90;;;;;;2073351;28;20315;-71
2024/03/04 02:53:33;;;;;;;16.67;9.47;;;6.20;99.90;;;;;;2073557;28;20229;-70
2024/03/04 02:54:34;;;;;;;19.67;11.17;;;6.10;99.90;;;;;;2064183;28;20236;-71
2024/03/04 02:55:37;;;;;;;18.00;11.57;;;6.00;99.90;;;;;;2071967;28;20644;-70
2024/03/04 02:56:38;;;;;;;17.52;10.10;;;5.90;99.90;;;;;;2073695;28;20220;-71
2024/03/04 02:57:39;;;;;;;16.13;10.23;;;5.90;99.90;;;;;;2070061;28;20270;-70
2024/03/04 02:58:40;;;;;;;16.70;11.10;;;5.90;99.90;;;;;;2056392;28;20234;-71
2024/03/04 02:59:42;;;;;;;16.83;10.67;;;5.80;99.90;;;;;;2055602;28;20326;-71
2024/03/04 03:00:43;;;;;;;19.30;11.68;;;5.70;99.90;;;;;;2065917;28;20288;-71
2024/03/04 03:01:47;;;;;;;14.20;8.90;;;5.70;99.90;;;;;;2057091;28;20302;-71
2024/03/04 03:02:49;;;;;;;20.52;11.40;;;5.80;99.90;;;;;;2056838;28;20566;-70
2024/03/04 03:03:50;;;;;;;18.23;10.70;;;5.80;99.90;;;;;;2065196;28;20635;-70
2024/03/04 03:04:50;;;;;;;19.80;10.83;;;5.80;99.90;;;;;;2060461;28;20193;-70
2024/03/04 03:05:51;;;;;;;15.80;9.43;;;5.70;99.90;;;;;;2056272;28;20201;-70
2024/03/04 03:06:52;;;;;;;23.23;11.83;;;5.70;99.90;;;;;;2073197;28;20258;-70
2024/03/04 03:07:53;;;;;;;20.73;11.00;;;5.70;99.90;;;;;;2073352;28;20276;-70
2024/03/04 03:08:57;;;;;;;17.90;10.15;;;5.80;99.90;;;;;;2073025;28;20236;-71
2024/03/04 03:09:58;;;;;;;18.88;9.75;;;5.80;99.90;;;;;;2074798;28;20192;-71
2024/03/04 03:10:59;;;;;;;20.02;11.45;;;5.90;99.90;;;;;;2071680;28;20182;-71
2024/03/04 03:11:59;;;;;;;16.20;9.87;;;5.90;99.90;;;;;;2073848;28;20320;-70
2024/03/04 03:13:00;;;;;;;16.57;9.13;;;6.00;99.90;;;;;;2064940;28;20178;-71
2024/03/04 03:14:02;;;;;;;66.30;13.73;;;5.90;99.90;;;;;;2066675;28;20241;-70
2024/03/04 03:15:04;;;;;;;23.00;11.25;;;5.80;99.90;;;;;;2064827;28;20182;-71
2024/03/04 03:16:04;;;;;;;27.98;12.73;;;5.70;99.90;;;;;;2066853;28;20284;-71
2024/03/04 03:17:05;;;;;;;22.70;11.53;;;5.60;99.90;;;;;;2064482;28;20281;-70
2024/03/04 03:18:06;;;;;;;26.50;11.38;;;5.50;99.90;;;;;;2064189;28;20245;-70
2024/03/04 03:19:07;;;;;;;17.13;10.10;;;5.50;99.90;;;;;;2065442;28;20229;-70
2024/03/04 03:20:16;;;;;;;20.57;10.77;;;5.50;99.90;;;;;;2062821;28;20471;-70
2024/03/04 03:21:17;;;;;;;25.35;12.52;;;5.50;99.90;;;;;;2057461;28;20257;-70
2024/03/04 03:22:19;;;;;;;30.52;11.48;;;5.50;99.90;;;;;;2060563;28;20289;-71
2024/03/04 03:23:19;;;;;;;37.42;12.30;;;5.40;99.90;;;;;;2057443;28;20230;-70
2024/03/04 03:24:20;;;;;;;28.20;11.80;;;5.40;99.90;;;;;;2057034;28;20300;-71
2024/03/04 03:25:21;;;;;;;32.08;12.13;;;5.40;99.90;;;;;;2059015;28;20230;-70
2024/03/04 03:26:23;;;;;;;23.70;11.23;;;5.40;99.90;;;;;;2067413;28;20625;-71
2024/03/04 03:27:24;;;;;;;27.17;12.15;;;5.40;99.90;;;;;;2064960;28;20291;-69
2024/03/04 03:28:24;;;;;;;26.63;11.48;;;5.30;99.90;;;;;;2071082;28;20244;-71
2024/03/04 03:29:25;;;;;;;28.43;11.93;;;5.30;99.90;;;;;;2073296;28;20291;-71
2024/03/04 03:30:27;;;;;;;21.65;10.82;;;5.30;99.90;;;;;;2073356;28;20737;-71
2024/03/04 03:31:28;;;;;;;24.88;11.35;;;5.30;99.90;;;;;;2071394;28;20217;-71
2024/03/04 03:32:29;;;;;;;24.40;11.17;;;5.30;99.90;;;;;;2072812;28;20302;-70
2024/03/04 03:33:29;;;;;;;23.37;10.97;;;5.30;99.90;;;;;;2072449;28;20252;-71
2024/03/04 03:34:30;;;;;;;18.53;10.73;;;5.40;99.90;;;;;;2072673;28;20220;-72
2024/03/04 03:35:31;;;;;;;28.13;10.80;;;5.40;99.90;;;;;;2079984;28;20228;-71
2024/03/04 03:36:32;;;;;;;18.63;10.33;;;5.40;99.90;;;;;;2074168;28;20698;-71
2024/03/04 03:37:36;;;;;;;19.38;11.10;;;5.50;99.90;;;;;;2064901;28;20589;-69
2024/03/04 03:38:36;;;;;;;14.27;8.70;;;5.50;99.90;;;;;;2059953;28;20708;-71
2024/03/04 03:39:37;;;;;;;18.97;10.80;;;5.50;99.90;;;;;;2074372;28;20226;-70
2024/03/04 03:40:38;;;;;;;16.90;9.77;;;5.50;99.90;;;;;;2072584;28;20224;-70
2024/03/04 03:41:39;;;;;;;18.23;10.03;;;5.40;99.90;;;;;;2063629;28;20838;-71
2024/03/04 03:42:41;;;;;;;15.80;8.68;;;5.40;99.90;;;;;;2065652;28;20259;-71
2024/03/04 03:43:42;;;;;;;17.77;9.15;;;5.30;99.90;;;;;;2075923;28;20603;-71
2024/03/04 03:44:42;;;;;;;17.37;8.57;;;5.30;99.90;;;;;;2073332;28;20261;-70
2024/03/04 03:45:43;;;;;;;21.43;10.77;;;5.30;99.90;;;;;;2070438;28;20738;-71
2024/03/04 03:46:44;;;;;;;24.80;10.30;;;5.20;99.90;;;;;;2070072;28;20431;-71
2024/03/04 03:47:45;;;;;;;15.37;8.57;;;5.20;99.90;;;;;;2061655;28;20234;-70
2024/03/04 03:48:45;;;;;;;25.00;10.87;;;5.20;99.90;;;;;;2052891;28;20211;-71
2024/03/04 03:49:46;;;;;;;18.13;10.73;;;5.20;99.90;;;;;;2055805;28;20214;-71
2024/03/04 03:50:47;;;;;;;16.23;9.40;;;5.10;99.90;;;;;;2058375;28;20230;-70
2024/03/04 03:51:48;;;;;;;19.17;10.30;;;5.10;99.90;;;;;;2061170;28;20217;-70
2024/03/04 03:52:49;;;;;;;18.53;9.07;;;5.10;99.90;;;;;;2064062;28;20190;-71
2024/03/04 03:53:49;;;;;;;16.17;9.67;;;5.10;99.90;;;;;;2072434;28;20183;-70
2024/03/04 03:54:50;;;;;;;10.50;7.00;;;5.10;99.90;;;;;;2068897;28;20178;-70
2024/03/04 03:55:52;;;;;;;16.33;8.70;;;5.10;99.90;;;;;;2069034;28;20215;-71
2024/03/04 03:56:52;;;;;;;15.32;9.13;;;5.20;99.90;;;;;;2070401;28;20177;-70
2024/03/04 03:57:53;;;;;;;15.47;9.07;;;5.20;99.90;;;;;;2066021;28;20192;-70
2024/03/04 03:58:54;;;;;;;14.77;8.80;;;5.20;99.90;;;;;;2070619;28;20190;-70
2024/03/04 03:59:54;;;;;;;15.40;8.73;;;5.20;99.90;;;;;;2074067;28;20272;-71
2024/03/04 04:00:55;;;;;;;15.00;8.47;;;5.20;99.90;;;;;;2055889;28;20768;-71
2024/03/04 04:01:56;;;;;;;14.77;8.07;;;5.20;99.90;;;;;;2063325;28;20280;-71
2024/03/04 04:02:57;;;;;;;16.60;7.93;;;5.30;99.90;;;;;;2046188;28;20593;-71
2024/03/04 04:03:58;;;;;;;12.73;7.65;;;5.30;99.90;;;;;;2051471;28;20194;-71
2024/03/04 04:04:59;;;;;;;15.63;9.17;;;5.30;99.90;;;;;;2061553;28;20566;-70
2024/03/04 04:06:00;;;;;;;16.70;7.70;;;5.20;99.90;;;;;;2070625;28;20185;-69
2024/03/04 04:07:01;;;;;;;15.45;8.20;;;5.10;99.90;;;;;;2071191;28;20269;-70
2024/03/04 04:08:02;;;;;;;13.43;7.27;;;5.10;99.90;;;;;;2071701;28;20178;-71
2024/03/04 04:09:03;;;;;;;15.63;8.10;;;5.20;99.90;;;;;;2072138;28;20220;-71
2024/03/04 04:10:05;;;;;;;14.25;8.23;;;5.20;99.90;;;;;;2072203;28;20186;-70
2024/03/04 04:11:06;;;;;;;13.32;8.50;;;5.20;99.90;;;;;;2071117;28;20738;-72
2024/03/04 04:12:07;;;;;;;11.23;6.90;;;5.30;99.90;;;;;;2062315;28;20229;-70
2024/03/04 04:13:07;;;;;;;13.02;8.25;;;5.20;99.90;;;;;;2056533;28;20321;-70
2024/03/04 04:14:08;;;;;;;12.77;8.47;;;5.20;99.90;;;;;;2071044;28;20292;-70
2024/03/04 04:15:09;;;;;;;14.97;8.30;;;5.20;99.90;;;;;;2071194;28;20234;-70
2024/03/04 04:16:10;;;;;;;12.98;7.97;;;5.10;99.90;;;;;;2071494;28;20287;-71
2024/03/04 04:17:12;;;;;;;13.10;6.47;;;5.10;99.90;;;;;;2063874;28;20226;-72
2024/03/04 04:18:13;;;;;;;11.02;7.80;;;5.10;99.90;;;;;;2064185;28;20225;-71
2024/03/04 04:19:16;;;;;;;14.00;7.33;;;5.00;99.90;;;;;;2070189;28;20349;-71
2024/03/04 04:20:16;;;;;;;12.57;7.57;;;5.00;99.90;;;;;;2072289;28;20228;-72
2024/03/04 04:21:20;;;;;;;13.50;6.83;;;5.10;99.90;;;;;;2070023;28;20229;-71
2024/03/04 04:22:21;;;;;;;12.25;7.25;;;5.10;99.90;;;;;;2057440;28;20603;-71
2024/03/04 04:23:22;;;;;;;14.00;6.60;;;5.10;99.90;;;;;;2054998;28;20230;-72
2024/03/04 04:24:23;;;;;;;16.20;8.20;;;5.20;99.90;;;;;;2066575;28;20232;-71
2024/03/04 04:25:23;;;;;;;13.17;7.50;;;5.20;99.90;;;;;;2072858;28;20260;-71
2024/03/04 04:26:25;;;;;;;12.93;6.80;;;5.20;99.90;;;;;;2070087;28;20312;-71
2024/03/04 04:27:26;;;;;;;11.88;7.45;;;5.30;99.90;;;;;;2070547;28;20253;-71
2024/03/04 04:28:27;;;;;;;12.63;6.43;;;5.30;99.90;;;;;;2068795;28;20256;-71
2024/03/04 04:29:28;;;;;;;14.63;8.00;;;5.30;99.90;;;;;;2070418;28;20586;-72
2024/03/04 04:30:29;;;;;;;15.03;8.03;;;5.40;99.90;;;;;;2071412;28;20232;-71
2024/03/04 04:31:29;;;;;;;13.87;6.50;;;5.30;99.90;;;;;;2070894;28;20288;-71
2024/03/04 04:32:30;;;;;;;12.83;7.23;;;5.30;99.90;;;;;;2065964;28;20285;-71
2024/03/04 04:33:31;;;;;;;13.13;7.30;;;5.30;99.90;;;;;;2069309;28;20229;-71
2024/03/04 04:34:31;;;;;;;15.00;7.10;;;5.30;99.90;;;;;;2065695;28;20757;-71
2024/03/04 04:35:32;;;;;;;13.17;6.67;;;5.40;99.90;;;;;;2055417;28;20579;-71
2024/03/04 04:36:33;;;;;;;13.80;8.00;;;5.40;99.90;;;;;;2065560;28;20229;-71
2024/03/04 04:37:33;;;;;;;14.73;8.33;;;5.40;99.90;;;;;;2054395;28;20765;-69
2024/03/04 04:38:34;;;;;;;13.77;8.13;;;5.40;99.90;;;;;;2060280;28;20313;-69
2024/03/04 04:39:38;;;;;;;13.57;7.93;;;5.40;99.90;;;;;;2071351;28;20312;-71
2024/03/04 04:40:38;;;;;;;12.00;7.50;;;5.40;99.90;;;;;;2060139;28;20688;-71
2024/03/04 04:41:39;;;;;;;12.57;7.33;;;5.40;99.90;;;;;;2070559;28;20225;-69
2024/03/04 04:42:40;;;;;;;13.20;7.27;;;5.40;99.90;;;;;;2072720;28;20275;-68
2024/03/04 04:43:41;;;;;;;13.60;6.50;;;5.40;99.90;;;;;;2072123;28;20320;-70
2024/03/04 04:44:41;;;;;;;16.13;8.40;;;5.40;99.90;;;;;;2069208;28;20236;-71
2024/03/04 04:45:42;;;;;;;13.47;7.17;;;5.40;99.90;;;;;;2069227;28;20229;-70
2024/03/04 04:46:43;;;;;;;13.77;7.60;;;5.40;99.90;;;;;;2070246;28;20225;-70
2024/03/04 04:47:43;;;;;;;10.57;6.47;;;5.30;99.90;;;;;;2062294;28;20305;-71
2024/03/04 04:48:44;;;;;;;12.90;7.50;;;5.40;99.90;;;;;;2062186;28;20695;-70
2024/03/04 04:49:45;;;;;;;17.20;7.37;;;5.40;99.90;;;;;;2059046;28;20349;-70
2024/03/04 04:50:45;;;;;;;13.90;7.53;;;5.50;99.90;;;;;;2073023;28;20197;-70
2024/03/04 04:51:46;;;;;;;16.23;8.10;;;5.40;99.90;;;;;;2072872;28;20216;-70
2024/03/04 04:52:47;;;;;;;13.07;6.27;;;5.40;99.90;;;;;;2072940;28;20227;-71
2024/03/04 04:53:48;;;;;;;13.53;6.77;;;5.40;99.90;;;;;;2069091;28;20192;-71
2024/03/04 04:54:48;;;;;;;15.07;7.63;;;5.40;99.90;;;;;;2071203;28;20247;-72
2024/03/04 04:55:49;;;;;;;13.57;7.50;;;5.50;99.90;;;;;;2072016;28;20189;-70
2024/03/04 04:56:53;;;;;;;13.05;7.90;;;5.50;99.90;;;;;;2071912;28;20185;-70
2024/03/04 04:57:54;;;;;;;10.40;5.65;;;5.50;99.90;;;;;;2068320;28;20185;-71
2024/03/04 04:58:54;;;;;;;11.10;6.53;;;5.50;99.90;;;;;;2071769;28;20185;-70
2024/03/04 04:59:55;;;;;;;11.27;6.90;;;5.50;99.90;;;;;;2072272;28;20199;-71
2024/03/04 05:00:56;;;;;;;14.93;6.60;;;5.60;99.90;;;;;;2072507;28;20185;-70
2024/03/04 05:01:57;;;;;;;17.50;8.50;;;5.60;99.90;;;;;;2068938;28;20629;-71
2024/03/04 05:02:58;;;;;;;11.50;7.17;;;5.50;99.90;;;;;;2064739;28;20198;-71
2024/03/04 05:03:58;;;;;;;11.60;6.80;;;5.50;99.90;;;;;;2069358;28;20193;-71
2024/03/04 05:04:59;;;;;;;11.17;6.37;;;5.50;99.90;;;;;;2062207;28;20197;-71
2024/03/04 05:06:01;;;;;;;12.17;6.77;;;5.60;99.90;;;;;;2052143;28;20235;-71
2024/03/04 05:07:02;;;;;;;12.98;6.63;;;5.60;99.90;;;;;;2057850;28;20750;-71
2024/03/04 05:08:05;;;;;;;12.13;7.00;;;5.60;99.90;;;;;;2058665;28;20234;-71
2024/03/04 05:09:06;;;;;;;14.13;7.72;;;5.60;99.90;;;;;;2057104;28;20250;-71
2024/03/04 05:10:08;;;;;;;14.52;6.05;;;5.60;99.90;;;;;;2061035;28;20237;-71
2024/03/04 05:11:12;;;;;;;12.93;6.55;;;5.60;99.90;;;;;;2058920;28;20257;-71
2024/03/04 05:12:13;;;;;;;12.40;7.45;;;5.50;99.90;;;;;;2061064;28;20237;-71
2024/03/04 05:13:13;;;;;;;12.27;6.43;;;5.50;99.90;;;;;;2063738;28;20636;-71
2024/03/04 05:14:16;;;;;;;16.67;7.23;;;5.50;99.90;;;;;;2070869;28;20506;-71
2024/03/04 05:15:17;;;;;;;11.15;6.45;;;5.50;99.90;;;;;;2071215;28;20229;-70
2024/03/04 05:16:18;;;;;;;8.10;5.73;;;5.40;99.90;;;;;;2071642;28;20317;-71